createdAt,value
2022-11-18T00:00:44.221Z,25.73
2022-11-18T00:04:47.464Z,25.53
2022-11-18T00:08:52.175Z,30.93
2022-11-18T00:13:12.678Z,30.33
2022-11-18T00:17:15.981Z,26.37
2022-11-18T00:21:19.199Z,23.00
2022-11-18T00:25:23.986Z,28.90
2022-11-18T00:29:28.482Z,23.63
2022-11-18T00:33:32.976Z,26.73
2022-11-18T00:37:36.301Z,30.77
2022-11-18T00:41:58.681Z,26.60
2022-11-18T00:46:02.170Z,36.10
2022-11-18T00:50:06.037Z,27.90
2022-11-18T00:54:09.292Z,32.20
2022-11-18T00:58:15.354Z,33.30
2022-11-18T01:02:18.604Z,28.13
2022-11-18T01:06:22.000Z,29.20
2022-11-18T01:10:25.271Z,31.13
2022-11-18T01:14:29.940Z,31.40
2022-11-18T01:18:33.297Z,28.23
2022-11-18T01:22:36.612Z,29.60
2022-11-18T01:26:39.901Z,28.70
2022-11-18T01:30:44.558Z,27.87
2022-11-18T01:34:47.837Z,32.63
2022-11-18T01:38:51.759Z,26.67
2022-11-18T01:42:55.125Z,25.83
2022-11-18T01:46:59.790Z,31.60
2022-11-18T01:51:07.190Z,33.80
2022-11-18T01:55:16.030Z,33.30
2022-11-18T01:59:21.990Z,48.30
2022-11-18T02:03:28.274Z,49.33
2022-11-18T02:07:33.034Z,40.53
2022-11-18T02:11:55.164Z,43.43
2022-11-18T02:16:07.071Z,46.13
2022-11-18T02:20:34.658Z,42.73
2022-11-18T02:24:45.664Z,55.00
2022-11-18T02:29:02.014Z,53.40
2022-11-18T02:33:09.962Z,46.07
2022-11-18T02:37:19.226Z,39.77
2022-11-18T02:41:27.488Z,43.83
2022-11-18T02:45:34.122Z,41.37
2022-11-18T02:49:40.816Z,39.10
2022-11-18T02:53:46.968Z,45.87
2022-11-18T02:57:51.448Z,34.90
2022-11-18T03:01:56.122Z,38.30
2022-11-18T03:06:08.842Z,32.93
2022-11-18T03:10:12.719Z,34.83
2022-11-18T03:14:25.092Z,32.93
2022-11-18T03:18:34.033Z,28.57
2022-11-18T03:22:44.089Z,34.00
2022-11-18T03:26:53.415Z,31.97
2022-11-18T03:31:03.986Z,33.50
2022-11-18T03:35:12.587Z,38.47
2022-11-18T03:39:19.966Z,42.40
2022-11-18T03:43:27.091Z,37.30
2022-11-18T03:47:34.980Z,37.37
2022-11-18T03:51:44.446Z,35.70
2022-11-18T03:55:52.091Z,34.60
2022-11-18T04:00:01.335Z,35.17
2022-11-18T04:04:05.435Z,35.60
2022-11-18T04:08:14.752Z,34.90
2022-11-18T04:12:21.686Z,33.93
2022-11-18T04:16:25.109Z,33.67
2022-11-18T04:20:28.860Z,27.77
2022-11-18T04:24:33.555Z,24.97
2022-11-18T04:28:37.019Z,27.87
2022-11-18T04:32:40.311Z,22.67
2022-11-18T04:36:43.670Z,27.77
2022-11-18T04:40:49.012Z,33.23
2022-11-18T04:44:52.374Z,32.83
2022-11-18T04:48:55.637Z,28.27
2022-11-18T04:52:58.894Z,26.77
2022-11-18T04:57:03.610Z,26.20
2022-11-18T05:01:06.948Z,28.40
2022-11-18T05:05:10.527Z,22.73
2022-11-18T05:09:14.285Z,25.40
2022-11-18T05:13:19.059Z,31.47
2022-11-18T05:17:22.499Z,24.47
2022-11-18T05:21:26.077Z,22.20
2022-11-18T05:25:35.623Z,26.40
2022-11-18T05:29:40.794Z,25.13
2022-11-18T05:33:44.962Z,27.47
2022-11-18T05:37:48.300Z,22.60
2022-11-18T05:42:09.148Z,28.17
2022-11-18T05:46:13.830Z,23.07
2022-11-18T05:50:21.317Z,20.13
2022-11-18T05:54:24.915Z,27.30
2022-11-18T05:58:29.209Z,23.13
2022-11-18T06:02:34.034Z,26.87
2022-11-18T06:06:37.505Z,28.10
2022-11-18T06:10:44.318Z,24.20
2022-11-18T06:15:06.397Z,25.87
2022-11-18T06:19:11.215Z,32.33
2022-11-18T06:23:15.277Z,25.63
2022-11-18T06:27:19.167Z,27.47
2022-11-18T06:31:22.424Z,28.40
2022-11-18T06:35:27.301Z,26.37
2022-11-18T06:39:31.006Z,25.77
2022-11-18T06:43:41.833Z,27.90
2022-11-18T06:47:45.231Z,23.73
2022-11-18T06:51:50.442Z,26.53
2022-11-18T06:55:53.801Z,21.17
2022-11-18T07:00:01.805Z,27.37
2022-11-18T07:04:06.495Z,20.10
2022-11-18T07:08:11.325Z,21.93
2022-11-18T07:12:14.617Z,21.00
2022-11-18T07:16:20.230Z,23.83
2022-11-18T07:20:23.565Z,20.93
2022-11-18T07:24:28.227Z,26.40
2022-11-18T07:28:32.298Z,23.60
2022-11-18T07:32:35.598Z,23.27
2022-11-18T07:36:39.046Z,18.87
2022-11-18T07:40:43.851Z,19.13
2022-11-18T07:44:47.454Z,21.40
2022-11-18T07:48:52.256Z,24.03
2022-11-18T07:52:58.196Z,18.30
2022-11-18T07:57:02.989Z,15.60
2022-11-18T08:01:10.492Z,20.00
2022-11-18T08:05:17.907Z,15.10
2022-11-18T08:09:21.659Z,12.93
2022-11-18T08:13:27.218Z,18.00
2022-11-18T08:17:30.762Z,16.67
2022-11-18T08:21:34.059Z,12.20
2022-11-18T08:25:37.549Z,15.50
2022-11-18T08:29:42.365Z,15.60
2022-11-18T08:33:46.250Z,13.57
2022-11-18T08:37:49.587Z,15.47
2022-11-18T08:41:52.949Z,13.60
2022-11-18T08:45:57.702Z,13.00
2022-11-18T08:50:01.004Z,11.30
2022-11-18T08:54:04.399Z,12.60
2022-11-18T08:58:08.336Z,11.53
2022-11-18T09:02:17.011Z,10.97
2022-11-18T09:06:22.928Z,11.53
2022-11-18T09:10:26.332Z,12.77
2022-11-18T09:15:12.356Z,11.47
2022-11-18T09:18:56.892Z,14.00
2022-11-18T09:23:01.292Z,14.50
2022-11-18T09:27:05.774Z,12.50
2022-11-18T09:31:10.498Z,11.37
2022-11-18T09:35:15.875Z,11.87
2022-11-18T09:39:19.452Z,11.60
2022-11-18T09:43:31.002Z,11.87
2022-11-18T09:47:36.843Z,12.80
2022-11-18T09:51:42.963Z,10.93
2022-11-18T09:55:47.083Z,13.13
2022-11-18T09:59:50.443Z,10.83
2022-11-18T10:03:53.836Z,13.43
2022-11-18T10:08:26.893Z,12.73
2022-11-18T10:12:38.841Z,11.90
2022-11-18T10:16:52.735Z,12.90
2022-11-18T10:21:09.498Z,14.10
2022-11-18T10:25:16.214Z,13.67
2022-11-18T10:29:19.561Z,15.90
2022-11-18T10:33:28.131Z,9.77
2022-11-18T10:42:03.114Z,13.97
2022-11-18T10:46:44.826Z,23.53
2022-11-18T10:50:56.225Z,13.73
2022-11-18T10:55:22.312Z,13.33
2022-11-18T10:59:33.861Z,12.17
2022-11-18T11:03:39.620Z,15.20
2022-11-18T11:07:43.195Z,15.60
2022-11-18T11:11:58.831Z,15.27
2022-11-18T11:16:06.360Z,14.80
2022-11-18T11:20:20.342Z,15.83
2022-11-18T11:24:28.002Z,21.43
2022-11-18T11:28:37.964Z,17.93
2022-11-18T11:33:15.289Z,17.90
2022-11-18T11:37:27.713Z,14.27
2022-11-18T11:41:37.378Z,18.03
2022-11-18T11:45:56.109Z,19.13
2022-11-18T11:50:04.161Z,16.30
2022-11-18T11:54:33.200Z,15.43
2022-11-18T11:59:01.885Z,19.73
2022-11-18T12:03:23.660Z,18.13
2022-11-18T12:07:31.668Z,20.53
2022-11-18T12:11:42.619Z,18.30
2022-11-18T12:15:54.827Z,17.77
2022-11-18T12:19:58.136Z,16.43
2022-11-18T12:24:31.357Z,15.10
2022-11-18T12:28:38.373Z,17.70
2022-11-18T12:32:43.626Z,21.87
2022-11-18T12:36:47.528Z,20.83
2022-11-18T12:40:53.315Z,17.70
2022-11-18T12:45:37.371Z,18.57
2022-11-18T12:50:15.115Z,20.70
2022-11-18T12:54:35.768Z,17.97
2022-11-18T12:58:46.704Z,17.77
2022-11-18T13:02:53.690Z,19.57
2022-11-18T13:07:00.352Z,19.60
2022-11-18T13:11:33.061Z,16.40
2022-11-18T13:16:01.222Z,16.00
2022-11-18T13:20:04.712Z,16.00
2022-11-18T13:24:08.680Z,23.43
2022-11-18T13:28:22.978Z,17.53
2022-11-18T13:32:29.137Z,20.93
2022-11-18T13:36:33.916Z,18.70
2022-11-18T13:41:04.502Z,19.17
2022-11-18T13:45:15.008Z,18.57
2022-11-18T13:49:23.443Z,22.23
2022-11-18T13:53:31.419Z,24.17
2022-11-18T13:57:37.304Z,24.03
2022-11-18T14:01:40.669Z,25.07
2022-11-18T14:05:57.704Z,23.20
2022-11-18T14:10:03.482Z,21.63
2022-11-18T14:14:07.837Z,24.97
2022-11-18T14:18:22.705Z,22.40
2022-11-18T14:22:29.844Z,23.50
2022-11-18T14:26:34.995Z,23.07
2022-11-18T14:30:39.927Z,22.57
2022-11-18T14:34:43.639Z,23.20
2022-11-18T14:43:14.575Z,20.13
2022-11-18T14:47:24.439Z,23.10
2022-11-18T14:51:27.729Z,26.07
2022-11-18T14:55:32.420Z,24.97
2022-11-18T14:59:35.734Z,21.43
2022-11-18T15:03:39.103Z,28.50
2022-11-18T15:07:42.496Z,24.20
2022-11-18T15:11:47.483Z,22.67
2022-11-18T15:15:50.798Z,22.23
2022-11-18T15:19:54.058Z,23.23
2022-11-18T15:23:57.417Z,25.30
2022-11-18T15:28:02.112Z,28.97
2022-11-18T15:32:05.634Z,30.70
2022-11-18T15:36:14.194Z,28.60
2022-11-18T15:40:18.149Z,27.63
2022-11-18T15:44:22.864Z,25.33
2022-11-18T15:48:26.219Z,24.97
2022-11-18T15:52:29.715Z,25.93
2022-11-18T15:56:34.595Z,28.97
2022-11-18T16:00:45.143Z,26.73
2022-11-18T16:04:48.791Z,27.07
2022-11-18T16:08:58.841Z,26.17
2022-11-18T16:13:02.752Z,24.47
2022-11-18T16:17:07.395Z,33.73
2022-11-18T16:21:10.789Z,31.20
2022-11-18T16:25:14.159Z,32.43
2022-11-18T16:29:18.663Z,33.73
2022-11-18T16:33:23.712Z,26.37
2022-11-18T16:37:27.806Z,30.57
2022-11-18T16:41:33.919Z,37.30
2022-11-18T16:45:37.771Z,32.23
2022-11-18T16:49:42.724Z,29.00
2022-11-18T16:53:50.809Z,32.10
2022-11-18T16:57:54.374Z,36.43
2022-11-18T17:01:59.739Z,26.60
2022-11-18T17:06:05.218Z,30.00
2022-11-18T17:10:20.080Z,28.33
2022-11-18T17:14:23.674Z,27.63
2022-11-18T17:18:45.261Z,28.13
2022-11-18T17:22:50.622Z,30.83
2022-11-18T17:26:55.807Z,28.43
2022-11-18T17:30:59.554Z,36.40
2022-11-18T17:35:02.943Z,34.77
2022-11-18T17:39:09.141Z,38.17
2022-11-18T17:43:13.024Z,33.33
2022-11-18T17:47:16.999Z,32.57
2022-11-18T17:51:20.735Z,30.87
2022-11-18T17:55:26.703Z,28.03
2022-11-18T17:59:34.579Z,29.77
2022-11-18T18:04:28.106Z,35.00
2022-11-18T18:08:34.407Z,40.57
2022-11-18T18:12:59.569Z,49.53
2022-11-18T18:17:08.610Z,49.27
2022-11-18T18:21:13.456Z,40.63
2022-11-18T18:25:17.370Z,44.90
2022-11-18T18:29:23.260Z,40.87
2022-11-18T18:33:31.495Z,39.00
2022-11-18T18:37:38.175Z,33.13
2022-11-18T18:41:42.040Z,37.13
2022-11-18T18:46:05.595Z,37.60
2022-11-18T18:50:10.566Z,32.67
2022-11-18T18:54:17.122Z,32.67
2022-11-18T18:58:24.175Z,30.50
2022-11-18T19:02:30.375Z,37.57
2022-11-18T19:11:31.208Z,41.23
2022-11-18T19:15:40.025Z,35.17
2022-11-18T19:20:03.227Z,39.33
2022-11-18T19:24:28.341Z,36.87
2022-11-18T19:28:36.730Z,42.33
2022-11-18T19:32:43.342Z,43.17
2022-11-18T19:36:49.070Z,48.87
2022-11-18T19:41:01.404Z,44.73
2022-11-18T19:45:07.968Z,42.17
2022-11-18T19:49:12.101Z,44.20
2022-11-18T19:53:36.693Z,40.37
2022-11-18T19:57:43.712Z,45.50
2022-11-18T20:01:50.287Z,50.23
2022-11-18T20:05:55.229Z,43.27
2022-11-18T20:10:01.018Z,42.20
2022-11-18T20:14:05.616Z,44.73
2022-11-18T20:18:17.259Z,51.00
2022-11-18T20:22:25.845Z,42.00
2022-11-18T20:26:34.703Z,49.50
2022-11-18T20:30:39.149Z,51.00
2022-11-18T20:34:44.519Z,44.70
2022-11-18T20:38:52.149Z,39.13
2022-11-18T20:43:15.296Z,42.93
2022-11-18T20:47:19.849Z,46.43
2022-11-18T20:51:25.842Z,75.20
2022-11-18T20:55:30.628Z,46.47
2022-11-18T20:59:36.191Z,52.93
2022-11-18T21:03:40.885Z,44.27
2022-11-18T21:07:44.527Z,38.67
2022-11-18T21:11:49.388Z,30.13
2022-11-18T21:15:59.447Z,33.73
2022-11-18T21:20:24.106Z,35.73
2022-11-18T21:24:31.108Z,27.90
2022-11-18T21:28:34.805Z,29.10
2022-11-18T21:32:40.563Z,30.30
2022-11-18T21:36:49.016Z,22.90
2022-11-18T21:40:55.200Z,25.77
2022-11-18T21:44:58.578Z,33.50
2022-11-18T21:49:03.599Z,28.80
2022-11-18T21:53:07.037Z,24.63
2022-11-18T21:57:10.869Z,32.70
2022-11-18T22:01:16.992Z,27.13
2022-11-18T22:05:21.789Z,31.43
2022-11-18T22:09:25.265Z,28.37
2022-11-18T22:13:28.830Z,32.23
2022-11-18T22:17:32.138Z,28.93
2022-11-18T22:21:36.828Z,28.43
2022-11-18T22:25:40.104Z,27.63
2022-11-18T22:29:43.539Z,29.80
2022-11-18T22:33:46.930Z,24.20
2022-11-18T22:37:51.589Z,21.83
2022-11-18T22:42:12.208Z,25.80
2022-11-18T22:46:15.460Z,27.20
2022-11-18T22:50:19.176Z,31.47
2022-11-18T22:54:38.477Z,25.47
2022-11-18T22:58:42.984Z,25.17
2022-11-18T23:02:46.317Z,24.70
2022-11-18T23:06:49.725Z,33.80
2022-11-18T23:10:54.459Z,25.93
2022-11-18T23:14:59.950Z,30.60
2022-11-18T23:19:04.708Z,23.20
2022-11-18T23:23:08.114Z,28.37
2022-11-18T23:27:12.884Z,21.67
2022-11-18T23:31:18.729Z,29.00
2022-11-18T23:35:22.034Z,30.20
2022-11-18T23:39:25.311Z,24.83
2022-11-18T23:43:32.131Z,27.43
2022-11-18T23:47:35.947Z,24.00
2022-11-18T23:51:39.334Z,24.90
2022-11-18T23:55:42.758Z,24.67
2022-11-18T23:59:47.444Z,27.70
